createdAt,value
2019-05-05T00:02:20.233Z,3.03
2019-05-05T00:05:08.430Z,3.10
2019-05-05T00:07:36.944Z,3.10
2019-05-05T00:10:09.642Z,2.57
2019-05-05T00:12:56.518Z,2.67
2019-05-05T00:15:44.990Z,2.83
2019-05-05T00:18:15.445Z,2.83
2019-05-05T00:20:44.961Z,2.60
2019-05-05T00:23:14.682Z,2.23
2019-05-05T00:25:44.736Z,2.53
2019-05-05T00:28:14.612Z,2.60
2019-05-05T00:30:44.895Z,2.37
2019-05-05T00:33:14.686Z,2.30
2019-05-05T00:35:45.161Z,2.43
2019-05-05T00:38:15.101Z,2.10
2019-05-05T00:40:44.806Z,2.00
2019-05-05T00:43:14.849Z,2.07
2019-05-05T00:45:46.092Z,2.40
2019-05-05T00:48:30.601Z,2.20
2019-05-05T00:51:00.139Z,2.00
2019-05-05T00:53:29.669Z,2.50
2019-05-05T00:55:59.343Z,2.50
2019-05-05T00:58:30.732Z,2.43
2019-05-05T01:01:20.831Z,2.33
2019-05-05T01:03:50.686Z,2.73
2019-05-05T01:06:26.489Z,2.40
2019-05-05T01:08:55.909Z,2.10
2019-05-05T01:11:25.861Z,2.50
2019-05-05T01:13:55.731Z,2.60
2019-05-05T01:16:25.693Z,2.37
2019-05-05T01:18:55.635Z,2.17
2019-05-05T01:21:25.344Z,2.37
2019-05-05T01:23:54.988Z,2.00
2019-05-05T01:26:25.033Z,2.17
2019-05-05T01:28:56.318Z,2.60
2019-05-05T01:31:26.421Z,2.00
2019-05-05T01:34:07.480Z,2.20
2019-05-05T01:36:37.109Z,2.90
2019-05-05T01:39:31.881Z,2.73
2019-05-05T01:42:05.379Z,2.57
2019-05-05T01:44:35.296Z,2.50
2019-05-05T01:47:05.401Z,2.40
2019-05-05T01:49:35.058Z,2.30
2019-05-05T01:52:04.885Z,2.50
2019-05-05T01:54:35.263Z,2.33
2019-05-05T01:57:05.713Z,2.27
2019-05-05T01:59:35.649Z,2.40
2019-05-05T02:02:05.709Z,2.27
2019-05-05T02:04:35.464Z,1.90
2019-05-05T02:07:06.078Z,2.13
2019-05-05T02:09:35.763Z,2.30
2019-05-05T02:12:05.447Z,2.33
2019-05-05T02:14:35.373Z,2.53
2019-05-05T02:17:05.246Z,2.27
2019-05-05T02:19:35.144Z,2.03
2019-05-05T02:22:05.443Z,2.20
2019-05-05T02:24:35.467Z,2.60
2019-05-05T02:27:05.565Z,4.10
2019-05-05T02:29:57.379Z,3.10
2019-05-05T02:32:46.064Z,3.00
2019-05-05T02:35:16.895Z,2.30
2019-05-05T02:37:46.793Z,2.30
2019-05-05T02:40:17.063Z,3.00
2019-05-05T02:42:47.155Z,2.60
2019-05-05T02:45:40.670Z,3.00
2019-05-05T02:48:15.493Z,2.43
2019-05-05T02:51:00.090Z,2.40
2019-05-05T02:53:27.716Z,2.13
2019-05-05T02:56:01.734Z,2.30
2019-05-05T02:58:33.961Z,1.90
2019-05-05T03:01:30.056Z,2.40
2019-05-05T03:04:01.245Z,2.30
2019-05-05T03:06:30.746Z,2.20
2019-05-05T03:09:01.603Z,2.43
2019-05-05T03:11:34.344Z,2.63
2019-05-05T03:14:06.820Z,2.60
2019-05-05T03:16:38.766Z,2.50
2019-05-05T03:19:09.689Z,2.70
2019-05-05T03:21:39.853Z,2.50
2019-05-05T03:24:10.267Z,2.43
2019-05-05T03:26:40.842Z,2.97
2019-05-05T03:29:13.939Z,2.63
2019-05-05T03:31:45.868Z,2.73
2019-05-05T03:34:16.562Z,3.17
2019-05-05T03:36:46.786Z,3.90
2019-05-05T03:39:23.616Z,4.67
2019-05-05T03:42:13.935Z,4.03
2019-05-05T03:45:05.688Z,2.93
2019-05-05T03:47:36.529Z,2.70
2019-05-05T03:50:07.072Z,2.27
2019-05-05T03:52:36.950Z,2.20
2019-05-05T03:55:07.466Z,2.47
2019-05-05T03:57:37.491Z,3.43
2019-05-05T04:00:08.106Z,3.03
2019-05-05T04:02:54.741Z,2.90
2019-05-05T04:05:44.433Z,4.30
2019-05-05T04:08:14.533Z,4.80
2019-05-05T04:10:44.654Z,3.93
2019-05-05T04:13:16.626Z,5.57
2019-05-05T04:16:06.808Z,3.80
2019-05-05T04:18:41.201Z,2.50
2019-05-05T04:21:11.055Z,2.93
2019-05-05T04:23:40.689Z,5.13
2019-05-05T04:26:10.419Z,13.30
2019-05-05T04:28:40.130Z,5.03
2019-05-05T04:31:09.996Z,4.57
2019-05-05T04:33:39.616Z,3.57
2019-05-05T04:36:09.329Z,3.83
2019-05-05T04:38:38.853Z,3.77
2019-05-05T04:41:08.623Z,3.43
2019-05-05T04:43:38.033Z,3.10
2019-05-05T04:46:07.757Z,3.60
2019-05-05T04:48:55.736Z,3.80
2019-05-05T04:51:29.059Z,3.60
2019-05-05T04:54:26.286Z,3.63
2019-05-05T04:56:56.137Z,4.00
2019-05-05T04:59:25.729Z,3.80
2019-05-05T05:01:58.081Z,3.93
2019-05-05T05:04:49.780Z,4.70
2019-05-05T05:07:20.010Z,5.47
2019-05-05T05:09:49.644Z,3.60
2019-05-05T05:12:19.079Z,3.30
2019-05-05T05:14:48.789Z,2.60
2019-05-05T05:17:27.264Z,2.30
2019-05-05T05:19:56.875Z,2.50
2019-05-05T05:22:26.614Z,2.50
2019-05-05T05:24:56.133Z,2.17
2019-05-05T05:27:26.020Z,2.17
2019-05-05T05:29:55.821Z,5.43
2019-05-05T05:32:25.242Z,3.13
2019-05-05T05:34:54.742Z,2.57
2019-05-05T05:37:24.176Z,3.03
2019-05-05T05:40:03.948Z,3.00
2019-05-05T05:42:33.675Z,2.97
2019-05-05T05:45:21.062Z,3.20
2019-05-05T05:48:08.350Z,3.33
2019-05-05T05:50:44.199Z,3.40
2019-05-05T05:53:14.033Z,3.60
2019-05-05T05:55:44.817Z,3.37
2019-05-05T05:58:14.343Z,3.87
2019-05-05T06:00:44.452Z,3.53
2019-05-05T06:03:14.284Z,4.07
2019-05-05T06:05:43.821Z,4.67
2019-05-05T06:08:14.163Z,4.77
2019-05-05T06:10:44.492Z,4.90
2019-05-05T06:13:15.488Z,4.00
2019-05-05T06:15:45.236Z,3.97
2019-05-05T06:18:14.746Z,4.47
2019-05-05T06:20:44.679Z,4.80
2019-05-05T06:23:14.895Z,4.33
2019-05-05T06:25:44.983Z,5.03
2019-05-05T06:28:14.772Z,4.30
2019-05-05T06:30:44.524Z,4.70
2019-05-05T06:33:14.546Z,4.37
2019-05-05T06:35:44.514Z,3.87
2019-05-05T06:38:14.293Z,4.67
2019-05-05T06:41:11.925Z,4.53
2019-05-05T06:44:03.731Z,4.13
2019-05-05T06:46:53.745Z,4.87
2019-05-05T06:49:23.887Z,4.40
2019-05-05T06:51:54.675Z,4.10
2019-05-05T06:54:24.752Z,4.50
2019-05-05T06:56:54.389Z,4.60
2019-05-05T06:59:24.471Z,4.17
2019-05-05T07:01:54.071Z,4.47
2019-05-05T07:04:24.526Z,4.40
2019-05-05T07:06:57.045Z,4.67
2019-05-05T07:09:25.851Z,4.90
2019-05-05T07:11:55.677Z,8.87
2019-05-05T07:14:25.281Z,10.83
2019-05-05T07:16:55.157Z,24.77
2019-05-05T07:19:24.907Z,21.53
2019-05-05T07:21:54.931Z,21.53
2019-05-05T07:24:24.688Z,9.43
2019-05-05T07:26:54.454Z,10.57
2019-05-05T07:29:24.120Z,8.10
2019-05-05T07:31:54.576Z,8.20
2019-05-05T07:34:26.337Z,6.33
2019-05-05T07:36:55.984Z,6.87
2019-05-05T07:39:25.735Z,6.20
2019-05-05T07:41:55.448Z,5.10
2019-05-05T07:44:29.293Z,5.07
2019-05-05T07:46:56.123Z,5.00
2019-05-05T07:49:25.582Z,4.63
2019-05-05T07:51:55.429Z,4.60
2019-05-05T07:54:25.130Z,5.03
2019-05-05T07:56:54.822Z,4.70
2019-05-05T07:59:24.350Z,4.90
2019-05-05T08:01:54.758Z,4.13
2019-05-05T08:04:24.548Z,3.20
2019-05-05T08:06:54.374Z,3.27
2019-05-05T08:09:24.939Z,3.10
2019-05-05T08:11:54.628Z,3.03
2019-05-05T08:14:24.687Z,3.30
2019-05-05T08:17:12.027Z,3.47
2019-05-05T08:19:48.549Z,3.20
2019-05-05T08:22:18.439Z,3.73
2019-05-05T08:25:06.784Z,3.20
2019-05-05T08:27:45.631Z,3.20
2019-05-05T08:30:21.686Z,3.40
2019-05-05T08:32:51.602Z,4.23
2019-05-05T08:35:21.023Z,3.37
2019-05-05T08:37:50.563Z,3.27
2019-05-05T08:40:20.334Z,2.77
2019-05-05T08:42:50.000Z,3.50
2019-05-05T08:45:19.743Z,3.10
2019-05-05T08:47:49.557Z,3.60
2019-05-05T08:50:19.539Z,3.20
2019-05-05T08:52:49.260Z,3.20
2019-05-05T08:55:19.022Z,3.03
2019-05-05T08:57:48.953Z,3.20
2019-05-05T09:00:18.506Z,3.20
2019-05-05T09:02:48.362Z,3.13
2019-05-05T09:05:17.975Z,2.93
2019-05-05T09:07:47.595Z,3.23
2019-05-05T09:10:17.530Z,2.70
2019-05-05T09:12:47.297Z,2.90
2019-05-05T09:15:17.151Z,2.40
2019-05-05T09:17:46.964Z,2.57
2019-05-05T09:20:17.062Z,2.70
2019-05-05T09:22:46.854Z,2.40
2019-05-05T09:25:34.493Z,2.60
2019-05-05T09:28:38.375Z,2.47
2019-05-05T09:31:08.222Z,2.87
2019-05-05T09:33:38.011Z,2.50
2019-05-05T09:36:07.621Z,2.33
2019-05-05T09:38:37.051Z,2.10
2019-05-05T09:41:06.474Z,2.67
2019-05-05T09:43:36.021Z,2.87
2019-05-05T09:46:05.512Z,2.47
2019-05-05T09:48:35.038Z,2.67
2019-05-05T09:51:04.913Z,3.45
2019-05-05T09:53:34.763Z,2.87
2019-05-05T09:56:04.620Z,2.62
2019-05-05T09:58:34.848Z,3.10
2019-05-05T10:01:05.092Z,3.40
2019-05-05T10:03:34.754Z,2.72
2019-05-05T10:06:05.097Z,3.00
2019-05-05T10:08:35.192Z,3.37
2019-05-05T10:11:05.047Z,3.05
2019-05-05T10:13:34.994Z,2.75
2019-05-05T10:16:05.407Z,3.25
2019-05-05T10:18:35.991Z,3.20
2019-05-05T10:21:06.036Z,2.67
2019-05-05T10:23:37.672Z,2.50
2019-05-05T10:26:09.849Z,2.95
2019-05-05T10:28:39.756Z,2.33
2019-05-05T10:31:09.543Z,3.00
2019-05-05T10:33:42.398Z,2.20
2019-05-05T10:36:13.856Z,2.60
2019-05-05T10:38:46.208Z,2.25
2019-05-05T10:41:15.952Z,2.98
2019-05-05T10:43:45.677Z,3.02
2019-05-05T10:46:18.097Z,3.00
2019-05-05T10:48:47.919Z,2.20
2019-05-05T10:51:17.607Z,2.72
2019-05-05T10:53:47.296Z,2.72
2019-05-05T10:56:17.146Z,2.72
2019-05-05T10:58:47.309Z,3.10
2019-05-05T11:01:16.924Z,2.55
2019-05-05T11:03:46.652Z,2.95
2019-05-05T11:06:16.940Z,2.80
2019-05-05T11:08:46.750Z,2.60
2019-05-05T11:11:16.493Z,3.08
2019-05-05T11:13:47.131Z,3.47
2019-05-05T11:16:17.022Z,3.22
2019-05-05T11:18:47.130Z,2.83
2019-05-05T11:21:16.767Z,2.92
2019-05-05T11:23:46.383Z,2.60
2019-05-05T11:26:16.124Z,2.55
2019-05-05T11:28:45.533Z,2.25
2019-05-05T11:31:15.597Z,2.55
2019-05-05T11:34:19.497Z,3.10
2019-05-05T11:37:10.950Z,2.90
2019-05-05T11:39:40.608Z,2.77
2019-05-05T11:42:10.422Z,3.20
2019-05-05T11:44:40.114Z,3.17
2019-05-05T11:47:09.556Z,3.37
2019-05-05T11:49:39.380Z,3.00
2019-05-05T11:52:09.119Z,2.80
2019-05-05T11:54:38.840Z,2.80
2019-05-05T11:57:08.676Z,2.80
2019-05-05T11:59:38.348Z,3.15
2019-05-05T12:02:08.292Z,3.90
2019-05-05T12:04:37.800Z,2.70
2019-05-05T12:07:07.568Z,3.23
2019-05-05T12:09:44.452Z,3.50
2019-05-05T12:12:14.289Z,3.10
2019-05-05T12:14:44.033Z,2.40
2019-05-05T12:17:15.587Z,3.10
2019-05-05T12:19:45.125Z,2.90
2019-05-05T12:22:14.780Z,3.07
2019-05-05T12:24:46.704Z,3.00
2019-05-05T12:27:35.373Z,2.93
2019-05-05T12:30:08.498Z,3.00
2019-05-05T12:32:38.245Z,3.40
2019-05-05T12:35:08.224Z,3.30
2019-05-05T12:37:38.020Z,3.33
2019-05-05T12:40:08.123Z,3.20
2019-05-05T12:42:37.855Z,2.90
2019-05-05T12:45:11.093Z,2.90
2019-05-05T12:47:59.525Z,3.23
2019-05-05T12:50:29.195Z,3.13
2019-05-05T12:52:58.899Z,2.87
2019-05-05T12:55:40.568Z,2.90
2019-05-05T12:58:00.262Z,2.97
2019-05-05T13:00:30.234Z,3.10
2019-05-05T13:02:59.730Z,2.73
2019-05-05T13:05:29.474Z,2.90
2019-05-05T13:07:59.025Z,3.23
2019-05-05T13:10:28.559Z,3.13
2019-05-05T13:12:58.237Z,3.20
2019-05-05T13:15:27.698Z,3.33
2019-05-05T13:17:57.482Z,3.50
2019-05-05T13:20:39.169Z,3.37
2019-05-05T13:23:26.186Z,3.37
2019-05-05T13:26:14.946Z,2.77
2019-05-05T13:28:44.592Z,3.50
2019-05-05T13:31:14.415Z,3.20
2019-05-05T13:33:44.374Z,3.23
2019-05-05T13:36:14.012Z,3.97
2019-05-05T13:38:43.907Z,3.50
2019-05-05T13:41:13.670Z,3.30
2019-05-05T13:43:43.362Z,3.10
2019-05-05T13:46:24.580Z,3.03
2019-05-05T13:48:53.982Z,3.17
2019-05-05T13:51:24.127Z,3.10
2019-05-05T13:53:54.027Z,2.87
2019-05-05T13:56:24.619Z,3.07
2019-05-05T13:58:54.377Z,3.33
2019-05-05T14:01:24.103Z,3.90
2019-05-05T14:03:54.257Z,3.43
2019-05-05T14:06:25.302Z,2.70
2019-05-05T14:08:55.192Z,2.43
2019-05-05T14:11:25.006Z,3.10
2019-05-05T14:13:54.817Z,3.33
2019-05-05T14:16:24.588Z,3.00
2019-05-05T14:18:54.256Z,2.87
2019-05-05T14:21:24.477Z,3.10
2019-05-05T14:24:00.682Z,3.97
2019-05-05T14:26:32.298Z,3.37
2019-05-05T14:29:01.674Z,3.00
2019-05-05T14:31:34.823Z,2.83
2019-05-05T14:34:10.892Z,3.10
2019-05-05T14:37:11.148Z,3.07
2019-05-05T14:39:40.339Z,3.07
2019-05-05T14:42:10.074Z,3.10
2019-05-05T14:44:39.861Z,4.23
2019-05-05T14:47:09.589Z,3.77
2019-05-05T14:49:39.322Z,3.20
2019-05-05T14:52:09.042Z,3.40
2019-05-05T14:54:38.808Z,4.27
2019-05-05T14:57:08.589Z,3.67
2019-05-05T14:59:38.334Z,3.97
2019-05-05T15:02:07.856Z,4.60
2019-05-05T15:04:39.205Z,4.23
2019-05-05T15:07:17.946Z,3.53
2019-05-05T15:09:51.662Z,3.27
2019-05-05T15:12:34.603Z,3.43
2019-05-05T15:15:07.340Z,3.00
2019-05-05T15:17:36.394Z,3.93
2019-05-05T15:20:06.905Z,3.53
2019-05-05T15:22:36.407Z,3.17
2019-05-05T15:25:06.561Z,2.87
2019-05-05T15:27:36.078Z,3.10
2019-05-05T15:30:06.390Z,3.43
2019-05-05T15:32:36.149Z,3.60
2019-05-05T15:35:06.662Z,3.23
2019-05-05T15:37:36.620Z,3.83
2019-05-05T15:40:06.932Z,3.07
2019-05-05T15:42:36.654Z,3.07
2019-05-05T15:45:06.834Z,3.33
2019-05-05T15:47:36.638Z,3.30
2019-05-05T15:50:06.734Z,3.37
2019-05-05T15:52:36.789Z,3.23
2019-05-05T15:55:07.605Z,3.20
2019-05-05T15:57:37.490Z,4.20
2019-05-05T16:00:07.380Z,4.00
2019-05-05T16:02:37.188Z,4.80
2019-05-05T16:05:07.208Z,5.23
2019-05-05T16:07:37.101Z,4.17
2019-05-05T16:10:07.471Z,3.83
2019-05-05T16:12:39.764Z,3.50
2019-05-05T16:15:40.816Z,4.03
2019-05-05T16:18:19.183Z,2.97
2019-05-05T16:20:54.656Z,3.50
2019-05-05T16:23:27.454Z,3.60
2019-05-05T16:25:57.202Z,2.97
2019-05-05T16:28:26.798Z,3.30
2019-05-05T16:30:56.519Z,3.50
2019-05-05T16:33:26.385Z,3.97
2019-05-05T16:35:55.986Z,3.93
2019-05-05T16:38:25.669Z,3.17
2019-05-05T16:40:55.363Z,3.20
2019-05-05T16:43:24.883Z,3.40
2019-05-05T16:45:54.428Z,4.23
2019-05-05T16:48:25.793Z,3.97
2019-05-05T16:50:55.795Z,3.57
2019-05-05T16:53:35.632Z,3.40
2019-05-05T16:56:07.676Z,3.50
2019-05-05T16:58:37.175Z,3.33
2019-05-05T17:01:10.186Z,4.10
2019-05-05T17:03:39.953Z,3.80
2019-05-05T17:06:09.383Z,3.40
2019-05-05T17:08:38.930Z,3.47
2019-05-05T17:11:08.452Z,3.57
2019-05-05T17:13:46.388Z,3.30
2019-05-05T17:16:35.324Z,3.73
2019-05-05T17:19:30.375Z,3.80
2019-05-05T17:22:18.726Z,4.13
2019-05-05T17:24:48.363Z,6.60
2019-05-05T17:27:18.100Z,6.23
2019-05-05T17:29:47.916Z,3.93
2019-05-05T17:32:17.848Z,3.20
2019-05-05T17:34:47.589Z,3.80
2019-05-05T17:37:17.015Z,2.97
2019-05-05T17:39:54.467Z,3.37
2019-05-05T17:42:35.147Z,3.70
2019-05-05T17:45:14.959Z,3.60
2019-05-05T17:48:09.950Z,3.57
2019-05-05T17:50:57.979Z,3.43
2019-05-05T17:53:36.174Z,3.40
2019-05-05T17:56:06.907Z,3.67
2019-05-05T17:58:36.447Z,3.50
2019-05-05T18:01:06.105Z,6.53
2019-05-05T18:03:35.896Z,10.57
2019-05-05T18:06:36.797Z,11.60
2019-05-05T18:09:14.065Z,11.70
2019-05-05T18:12:07.400Z,15.50
2019-05-05T18:14:37.287Z,15.80
2019-05-05T18:17:07.159Z,16.17
2019-05-05T18:19:38.986Z,13.27
2019-05-05T18:22:08.794Z,9.03
2019-05-05T18:24:38.290Z,7.80
2019-05-05T18:27:08.018Z,5.97
2019-05-05T18:29:37.625Z,8.50
2019-05-05T18:32:07.158Z,7.63
2019-05-05T18:34:36.693Z,7.27
2019-05-05T18:37:06.125Z,8.70
2019-05-05T18:39:35.795Z,9.10
2019-05-05T18:42:13.991Z,8.23
2019-05-05T18:44:45.864Z,5.07
2019-05-05T18:47:19.532Z,4.23
2019-05-05T18:49:49.110Z,5.03
2019-05-05T18:52:18.856Z,4.03
2019-05-05T18:54:48.685Z,3.10
2019-05-05T18:57:18.420Z,3.47
2019-05-05T18:59:47.856Z,3.13
2019-05-05T19:02:35.483Z,3.50
2019-05-05T19:05:19.825Z,3.53
2019-05-05T19:08:14.386Z,3.80
2019-05-05T19:10:43.851Z,3.10
2019-05-05T19:13:13.780Z,3.60
2019-05-05T19:15:43.702Z,3.40
2019-05-05T19:18:14.053Z,3.30
2019-05-05T19:21:03.621Z,3.73
2019-05-05T19:23:33.798Z,3.37
2019-05-05T19:26:07.518Z,3.10
2019-05-05T19:28:43.909Z,3.37
2019-05-05T19:31:07.823Z,2.90
2019-05-05T19:33:37.505Z,3.20
2019-05-05T19:36:06.962Z,2.97
2019-05-05T19:38:36.747Z,3.30
2019-05-05T19:41:06.256Z,2.97
2019-05-05T19:43:37.654Z,3.10
2019-05-05T19:46:08.763Z,3.57
2019-05-05T19:48:38.538Z,3.13
2019-05-05T19:51:11.561Z,3.53
2019-05-05T19:53:41.368Z,3.10
2019-05-05T19:56:10.972Z,2.83
2019-05-05T19:58:40.652Z,3.07
2019-05-05T20:01:10.178Z,3.13
2019-05-05T20:03:44.150Z,2.93
2019-05-05T20:06:14.264Z,3.20
2019-05-05T20:08:44.392Z,3.10
2019-05-05T20:11:14.382Z,4.83
2019-05-05T20:13:44.623Z,5.47
2019-05-05T20:16:26.791Z,4.40
2019-05-05T20:18:56.463Z,3.17
2019-05-05T20:21:26.325Z,2.57
2019-05-05T20:23:56.063Z,2.37
2019-05-05T20:26:25.773Z,2.10
2019-05-05T20:28:55.622Z,2.57
2019-05-05T20:31:25.237Z,2.40
2019-05-05T20:34:04.907Z,2.20
2019-05-05T20:36:35.155Z,1.97
2019-05-05T20:39:06.707Z,2.13
2019-05-05T20:41:36.544Z,2.10
2019-05-05T20:44:08.853Z,2.20
2019-05-05T20:46:38.617Z,2.30
2019-05-05T20:49:08.320Z,2.67
2019-05-05T20:51:37.750Z,2.70
2019-05-05T20:54:07.688Z,1.90
2019-05-05T20:56:37.384Z,2.50
2019-05-05T20:59:06.795Z,2.43
2019-05-05T21:01:36.239Z,2.37
2019-05-05T21:04:05.903Z,2.17
2019-05-05T21:06:35.704Z,2.53
2019-05-05T21:09:07.185Z,2.93
2019-05-05T21:11:37.261Z,2.43
2019-05-05T21:14:07.052Z,2.50
2019-05-05T21:16:36.815Z,2.27
2019-05-05T21:19:06.338Z,2.20
2019-05-05T21:21:37.564Z,2.13
2019-05-05T21:24:07.815Z,2.00
2019-05-05T21:27:13.768Z,2.53
2019-05-05T21:29:43.464Z,2.67
2019-05-05T21:32:13.867Z,2.63
2019-05-05T21:34:44.415Z,3.43
2019-05-05T21:37:14.332Z,3.47
2019-05-05T21:39:45.470Z,2.93
2019-05-05T21:42:15.250Z,2.70
2019-05-05T21:44:44.960Z,3.10
2019-05-05T21:47:14.698Z,3.20
2019-05-05T21:49:44.370Z,3.33
2019-05-05T21:52:28.567Z,3.10
2019-05-05T21:55:08.337Z,4.30
2019-05-05T21:57:55.431Z,3.87
2019-05-05T22:00:44.238Z,3.67
2019-05-05T22:03:17.132Z,3.20
2019-05-05T22:05:46.746Z,2.90
2019-05-05T22:08:16.617Z,3.00
2019-05-05T22:10:46.019Z,2.93
2019-05-05T22:13:15.790Z,2.73
2019-05-05T22:15:45.587Z,3.10
2019-05-05T22:18:15.188Z,3.30
2019-05-05T22:20:49.640Z,3.73
2019-05-05T22:23:19.078Z,3.27
2019-05-05T22:25:48.786Z,2.50
2019-05-05T22:28:18.276Z,3.10
2019-05-05T22:30:48.052Z,3.97
2019-05-05T22:33:17.782Z,3.80
2019-05-05T22:35:48.922Z,3.13
2019-05-05T22:38:18.567Z,3.23
2019-05-05T22:40:51.207Z,3.20
2019-05-05T22:43:20.879Z,2.73
2019-05-05T22:45:50.520Z,2.33
2019-05-05T22:48:20.159Z,2.40
2019-05-05T22:50:50.014Z,2.80
2019-05-05T22:53:19.863Z,2.30
2019-05-05T22:55:49.378Z,2.53
2019-05-05T22:58:19.088Z,2.60
2019-05-05T23:00:49.064Z,2.53
2019-05-05T23:03:30.944Z,2.30
2019-05-05T23:06:04.640Z,3.20
2019-05-05T23:08:35.113Z,3.50
2019-05-05T23:11:04.997Z,3.63
2019-05-05T23:13:34.862Z,3.70
2019-05-05T23:16:14.773Z,4.17
2019-05-05T23:18:44.602Z,4.00
2019-05-05T23:21:31.349Z,3.50
2019-05-05T23:24:35.121Z,3.70
2019-05-05T23:27:04.743Z,3.80
2019-05-05T23:29:34.545Z,3.37
2019-05-05T23:32:04.357Z,4.37
2019-05-05T23:34:34.022Z,3.77
2019-05-05T23:37:04.306Z,3.53
2019-05-05T23:39:34.088Z,4.10
2019-05-05T23:42:04.138Z,4.80
2019-05-05T23:44:36.543Z,3.87
2019-05-05T23:47:06.074Z,4.20
2019-05-05T23:49:35.792Z,5.53
2019-05-05T23:52:05.672Z,5.20
2019-05-05T23:54:35.422Z,5.07
2019-05-05T23:57:05.228Z,5.10
2019-05-05T23:59:34.967Z,5.67
